sensor_id;sensor_type;location;lat;lon;timestamp;temperature;humidity
7388;DHT22;3735;50.136;11.062;2023-04-03T00:00:50;1.80;99.90
7388;DHT22;3735;50.136;11.062;2023-04-03T00:03:17;1.80;99.90
7388;DHT22;3735;50.136;11.062;2023-04-03T00:05:44;1.80;99.90
7388;DHT22;3735;50.136;11.062;2023-04-03T00:08:10;1.90;99.90
7388;DHT22;3735;50.136;11.062;2023-04-03T00:10:37;1.90;99.90
7388;DHT22;3735;50.136;11.062;2023-04-03T00:13:04;1.90;99.90
7388;DHT22;3735;50.136;11.062;2023-04-03T00:15:31;1.90;99.90
7388;DHT22;3735;50.136;11.062;2023-04-03T00:17:57;1.90;99.90
7388;DHT22;3735;50.136;11.062;2023-04-03T00:20:23;1.90;99.90
7388;DHT22;3735;50.136;11.062;2023-04-03T00:22:49;2.00;99.90
7388;DHT22;3735;50.136;11.062;2023-04-03T00:25:15;2.00;99.90
7388;DHT22;3735;50.136;11.062;2023-04-03T00:27:40;2.00;99.90
7388;DHT22;3735;50.136;11.062;2023-04-03T00:30:09;2.00;99.90
7388;DHT22;3735;50.136;11.062;2023-04-03T00:32:38;2.00;99.90
7388;DHT22;3735;50.136;11.062;2023-04-03T00:35:04;2.00;99.90
7388;DHT22;3735;50.136;11.062;2023-04-03T00:37:30;2.00;99.90
7388;DHT22;3735;50.136;11.062;2023-04-03T00:39:56;2.10;99.90
7388;DHT22;3735;50.136;11.062;2023-04-03T00:42:23;2.10;99.90
7388;DHT22;3735;50.136;11.062;2023-04-03T00:47:16;2.20;99.90
7388;DHT22;3735;50.136;11.062;2023-04-03T00:49:43;2.20;99.90
7388;DHT22;3735;50.136;11.062;2023-04-03T00:52:14;2.20;99.90
7388;DHT22;3735;50.136;11.062;2023-04-03T00:54:43;2.20;99.90
7388;DHT22;3735;50.136;11.062;2023-04-03T00:57:12;2.20;99.90
7388;DHT22;3735;50.136;11.062;2023-04-03T00:59:44;2.20;99.90
7388;DHT22;3735;50.136;11.062;2023-04-03T01:02:14;2.20;99.90
7388;DHT22;3735;50.136;11.062;2023-04-03T01:04:42;2.20;99.90
7388;DHT22;3735;50.136;11.062;2023-04-03T01:07:29;2.20;99.90
7388;DHT22;3735;50.136;11.062;2023-04-03T01:10:02;2.20;99.90
7388;DHT22;3735;50.136;11.062;2023-04-03T01:12:34;2.20;99.90
7388;DHT22;3735;50.136;11.062;2023-04-03T01:15:15;2.10;99.90
7388;DHT22;3735;50.136;11.062;2023-04-03T01:17:48;2.20;99.90
7388;DHT22;3735;50.136;11.062;2023-04-03T01:25:56;2.20;99.90
7388;DHT22;3735;50.136;11.062;2023-04-03T01:28:26;2.20;99.90
7388;DHT22;3735;50.136;11.062;2023-04-03T01:34:10;2.00;99.90
7388;DHT22;3735;50.136;11.062;2023-04-03T01:36:36;2.00;99.90
7388;DHT22;3735;50.136;11.062;2023-04-03T01:39:02;2.10;99.90
7388;DHT22;3735;50.136;11.062;2023-04-03T01:41:28;2.10;99.90
7388;DHT22;3735;50.136;11.062;2023-04-03T01:43:54;2.10;99.90
7388;DHT22;3735;50.136;11.062;2023-04-03T01:46:21;2.10;99.90
7388;DHT22;3735;50.136;11.062;2023-04-03T01:48:48;2.20;99.90
7388;DHT22;3735;50.136;11.062;2023-04-03T01:51:14;2.20;99.90
7388;DHT22;3735;50.136;11.062;2023-04-03T01:53:40;2.20;99.90
7388;DHT22;3735;50.136;11.062;2023-04-03T01:56:07;2.30;99.90
7388;DHT22;3735;50.136;11.062;2023-04-03T01:58:33;2.20;99.90
7388;DHT22;3735;50.136;11.062;2023-04-03T02:00:58;2.30;99.90
7388;DHT22;3735;50.136;11.062;2023-04-03T02:03:24;2.40;99.90
7388;DHT22;3735;50.136;11.062;2023-04-03T02:05:50;2.40;99.90
7388;DHT22;3735;50.136;11.062;2023-04-03T02:08:16;2.40;99.90
7388;DHT22;3735;50.136;11.062;2023-04-03T02:10:49;2.40;99.90
7388;DHT22;3735;50.136;11.062;2023-04-03T02:13:16;2.40;99.90
7388;DHT22;3735;50.136;11.062;2023-04-03T02:15:42;2.40;99.90
7388;DHT22;3735;50.136;11.062;2023-04-03T02:18:09;2.30;99.90
7388;DHT22;3735;50.136;11.062;2023-04-03T02:20:35;2.20;99.90
7388;DHT22;3735;50.136;11.062;2023-04-03T02:23:01;2.20;99.90
7388;DHT22;3735;50.136;11.062;2023-04-03T02:25:30;2.20;99.90
7388;DHT22;3735;50.136;11.062;2023-04-03T02:27:56;2.30;99.90
7388;DHT22;3735;50.136;11.062;2023-04-03T02:30:22;2.20;99.90
7388;DHT22;3735;50.136;11.062;2023-04-03T02:32:48;2.20;99.90
7388;DHT22;3735;50.136;11.062;2023-04-03T02:35:13;2.10;99.90
7388;DHT22;3735;50.136;11.062;2023-04-03T02:37:39;2.10;99.90
7388;DHT22;3735;50.136;11.062;2023-04-03T02:40:06;2.10;99.90
7388;DHT22;3735;50.136;11.062;2023-04-03T02:42:32;2.10;99.90
7388;DHT22;3735;50.136;11.062;2023-04-03T02:44:58;2.10;99.90
7388;DHT22;3735;50.136;11.062;2023-04-03T02:47:26;2.00;99.90
7388;DHT22;3735;50.136;11.062;2023-04-03T02:49:52;2.00;99.90
7388;DHT22;3735;50.136;11.062;2023-04-03T02:52:19;2.00;99.90
7388;DHT22;3735;50.136;11.062;2023-04-03T02:54:45;2.10;99.90
7388;DHT22;3735;50.136;11.062;2023-04-03T02:57:11;2.10;99.90
7388;DHT22;3735;50.136;11.062;2023-04-03T02:59:37;2.20;99.90
7388;DHT22;3735;50.136;11.062;2023-04-03T03:02:07;2.20;99.90
7388;DHT22;3735;50.136;11.062;2023-04-03T03:04:33;2.20;99.90
7388;DHT22;3735;50.136;11.062;2023-04-03T03:07:00;2.20;99.90
7388;DHT22;3735;50.136;11.062;2023-04-03T03:09:26;2.20;99.90
7388;DHT22;3735;50.136;11.062;2023-04-03T03:11:52;2.20;99.90
7388;DHT22;3735;50.136;11.062;2023-04-03T03:14:18;2.10;99.90
7388;DHT22;3735;50.136;11.062;2023-04-03T03:16:44;2.10;99.90
7388;DHT22;3735;50.136;11.062;2023-04-03T03:19:10;1.90;99.90
7388;DHT22;3735;50.136;11.062;2023-04-03T03:21:36;1.80;99.90
7388;DHT22;3735;50.136;11.062;2023-04-03T03:24:02;1.70;99.90
7388;DHT22;3735;50.136;11.062;2023-04-03T03:26:28;1.60;99.90
7388;DHT22;3735;50.136;11.062;2023-04-03T03:28:53;1.50;99.90
7388;DHT22;3735;50.136;11.062;2023-04-03T03:31:19;1.40;99.90
7388;DHT22;3735;50.136;11.062;2023-04-03T03:33:45;1.40;99.90
7388;DHT22;3735;50.136;11.062;2023-04-03T03:36:11;1.40;99.90
7388;DHT22;3735;50.136;11.062;2023-04-03T03:38:37;1.40;99.90
7388;DHT22;3735;50.136;11.062;2023-04-03T03:41:03;1.40;99.90
7388;DHT22;3735;50.136;11.062;2023-04-03T03:43:29;1.30;99.90
7388;DHT22;3735;50.136;11.062;2023-04-03T03:45:55;1.40;99.90
7388;DHT22;3735;50.136;11.062;2023-04-03T03:48:21;1.40;99.90
7388;DHT22;3735;50.136;11.062;2023-04-03T03:50:48;1.50;99.90
7388;DHT22;3735;50.136;11.062;2023-04-03T03:53:15;1.50;99.90
7388;DHT22;3735;50.136;11.062;2023-04-03T03:55:41;1.50;99.90
7388;DHT22;3735;50.136;11.062;2023-04-03T03:58:07;1.50;99.90
7388;DHT22;3735;50.136;11.062;2023-04-03T04:00:34;1.50;99.90
7388;DHT22;3735;50.136;11.062;2023-04-03T04:03:00;1.50;99.90
7388;DHT22;3735;50.136;11.062;2023-04-03T04:05:26;1.50;99.90
7388;DHT22;3735;50.136;11.062;2023-04-03T04:07:52;1.50;99.90
7388;DHT22;3735;50.136;11.062;2023-04-03T04:10:18;1.50;99.90
7388;DHT22;3735;50.136;11.062;2023-04-03T04:12:43;1.50;99.90
7388;DHT22;3735;50.136;11.062;2023-04-03T04:15:09;1.60;99.90
7388;DHT22;3735;50.136;11.062;2023-04-03T04:17:36;1.50;99.90
7388;DHT22;3735;50.136;11.062;2023-04-03T04:20:03;1.40;99.90
7388;DHT22;3735;50.136;11.062;2023-04-03T04:22:30;1.40;99.90
7388;DHT22;3735;50.136;11.062;2023-04-03T04:24:56;1.30;99.90
7388;DHT22;3735;50.136;11.062;2023-04-03T04:27:23;1.20;99.90
7388;DHT22;3735;50.136;11.062;2023-04-03T04:29:48;1.20;99.90
7388;DHT22;3735;50.136;11.062;2023-04-03T04:32:14;1.20;99.90
7388;DHT22;3735;50.136;11.062;2023-04-03T04:34:40;1.20;99.90
7388;DHT22;3735;50.136;11.062;2023-04-03T04:37:06;1.40;99.90
7388;DHT22;3735;50.136;11.062;2023-04-03T04:39:31;1.30;99.90
7388;DHT22;3735;50.136;11.062;2023-04-03T04:41:57;1.30;99.90
7388;DHT22;3735;50.136;11.062;2023-04-03T04:44:23;1.30;99.90
7388;DHT22;3735;50.136;11.062;2023-04-03T04:46:48;1.30;99.90
7388;DHT22;3735;50.136;11.062;2023-04-03T04:49:14;1.20;99.90
7388;DHT22;3735;50.136;11.062;2023-04-03T04:51:40;1.20;99.90
7388;DHT22;3735;50.136;11.062;2023-04-03T04:54:06;1.20;99.90
7388;DHT22;3735;50.136;11.062;2023-04-03T04:56:32;1.10;99.90
7388;DHT22;3735;50.136;11.062;2023-04-03T04:58:57;1.00;99.90
7388;DHT22;3735;50.136;11.062;2023-04-03T05:01:23;1.00;99.90
7388;DHT22;3735;50.136;11.062;2023-04-03T05:03:49;1.00;99.90
7388;DHT22;3735;50.136;11.062;2023-04-03T05:06:15;1.00;99.90
7388;DHT22;3735;50.136;11.062;2023-04-03T05:08:40;1.00;99.90
7388;DHT22;3735;50.136;11.062;2023-04-03T05:11:06;1.00;99.90
7388;DHT22;3735;50.136;11.062;2023-04-03T05:13:32;1.00;99.90
7388;DHT22;3735;50.136;11.062;2023-04-03T05:15:57;0.90;99.90
7388;DHT22;3735;50.136;11.062;2023-04-03T05:18:24;0.90;99.90
7388;DHT22;3735;50.136;11.062;2023-04-03T05:20:50;1.00;99.90
7388;DHT22;3735;50.136;11.062;2023-04-03T05:23:16;1.00;99.90
7388;DHT22;3735;50.136;11.062;2023-04-03T05:25:42;1.20;99.90
7388;DHT22;3735;50.136;11.062;2023-04-03T05:28:10;1.20;99.90
7388;DHT22;3735;50.136;11.062;2023-04-03T05:30:36;1.30;99.90
7388;DHT22;3735;50.136;11.062;2023-04-03T05:33:02;1.30;99.90
7388;DHT22;3735;50.136;11.062;2023-04-03T05:35:28;1.40;99.90
7388;DHT22;3735;50.136;11.062;2023-04-03T05:37:54;1.50;99.90
7388;DHT22;3735;50.136;11.062;2023-04-03T05:40:20;1.50;99.90
7388;DHT22;3735;50.136;11.062;2023-04-03T05:42:46;1.60;99.90
7388;DHT22;3735;50.136;11.062;2023-04-03T05:45:12;1.60;99.90
7388;DHT22;3735;50.136;11.062;2023-04-03T05:47:37;1.60;99.90
7388;DHT22;3735;50.136;11.062;2023-04-03T05:50:04;1.60;99.90
7388;DHT22;3735;50.136;11.062;2023-04-03T05:52:34;1.70;99.90
7388;DHT22;3735;50.136;11.062;2023-04-03T05:55:03;1.90;99.90
7388;DHT22;3735;50.136;11.062;2023-04-03T05:57:29;2.00;99.90
7388;DHT22;3735;50.136;11.062;2023-04-03T05:59:55;2.10;99.90
7388;DHT22;3735;50.136;11.062;2023-04-03T06:02:22;2.20;99.90
7388;DHT22;3735;50.136;11.062;2023-04-03T06:04:49;2.40;99.90
7388;DHT22;3735;50.136;11.062;2023-04-03T06:07:18;2.50;99.90
7388;DHT22;3735;50.136;11.062;2023-04-03T06:09:46;2.60;99.90
7388;DHT22;3735;50.136;11.062;2023-04-03T06:12:12;2.80;99.90
7388;DHT22;3735;50.136;11.062;2023-04-03T06:14:38;3.00;99.90
7388;DHT22;3735;50.136;11.062;2023-04-03T06:17:04;3.30;99.90
7388;DHT22;3735;50.136;11.062;2023-04-03T06:19:31;3.50;99.90
7388;DHT22;3735;50.136;11.062;2023-04-03T06:21:57;3.60;99.90
7388;DHT22;3735;50.136;11.062;2023-04-03T06:24:23;3.50;99.90
7388;DHT22;3735;50.136;11.062;2023-04-03T06:26:50;3.50;99.90
7388;DHT22;3735;50.136;11.062;2023-04-03T06:29:18;3.40;99.90
7388;DHT22;3735;50.136;11.062;2023-04-03T06:31:46;3.40;99.90
7388;DHT22;3735;50.136;11.062;2023-04-03T06:34:12;3.40;99.90
7388;DHT22;3735;50.136;11.062;2023-04-03T06:36:39;3.40;99.90
7388;DHT22;3735;50.136;11.062;2023-04-03T06:39:05;3.40;99.90
7388;DHT22;3735;50.136;11.062;2023-04-03T06:41:32;3.30;99.90
7388;DHT22;3735;50.136;11.062;2023-04-03T06:43:58;3.40;99.90
7388;DHT22;3735;50.136;11.062;2023-04-03T06:46:26;3.40;99.90
7388;DHT22;3735;50.136;11.062;2023-04-03T06:48:52;3.30;99.90
7388;DHT22;3735;50.136;11.062;2023-04-03T06:53:51;3.00;99.90
7388;DHT22;3735;50.136;11.062;2023-04-03T06:56:18;2.90;99.90
7388;DHT22;3735;50.136;11.062;2023-04-03T06:58:45;2.80;99.90
7388;DHT22;3735;50.136;11.062;2023-04-03T07:01:14;2.80;99.90
7388;DHT22;3735;50.136;11.062;2023-04-03T07:03:41;2.80;99.90
7388;DHT22;3735;50.136;11.062;2023-04-03T07:06:10;3.00;99.90
7388;DHT22;3735;50.136;11.062;2023-04-03T07:08:38;3.20;99.90
7388;DHT22;3735;50.136;11.062;2023-04-03T07:11:04;3.40;99.90
7388;DHT22;3735;50.136;11.062;2023-04-03T07:13:30;3.50;99.90
7388;DHT22;3735;50.136;11.062;2023-04-03T07:15:58;3.60;99.90
7388;DHT22;3735;50.136;11.062;2023-04-03T07:18:24;3.70;99.90
7388;DHT22;3735;50.136;11.062;2023-04-03T07:20:50;3.70;99.90
7388;DHT22;3735;50.136;11.062;2023-04-03T07:23:16;3.70;99.90
7388;DHT22;3735;50.136;11.062;2023-04-03T07:25:47;3.90;99.90
7388;DHT22;3735;50.136;11.062;2023-04-03T07:28:15;4.10;99.90
7388;DHT22;3735;50.136;11.062;2023-04-03T07:30:59;4.40;99.90
7388;DHT22;3735;50.136;11.062;2023-04-03T07:33:28;4.40;99.90
7388;DHT22;3735;50.136;11.062;2023-04-03T07:35:54;4.50;99.90
7388;DHT22;3735;50.136;11.062;2023-04-03T07:38:20;4.70;99.90
7388;DHT22;3735;50.136;11.062;2023-04-03T07:40:47;4.70;99.90
7388;DHT22;3735;50.136;11.062;2023-04-03T07:43:15;4.60;99.90
7388;DHT22;3735;50.136;11.062;2023-04-03T07:45:43;5.30;99.90
7388;DHT22;3735;50.136;11.062;2023-04-03T07:48:10;5.50;99.90
7388;DHT22;3735;50.136;11.062;2023-04-03T07:50:37;5.40;99.90
7388;DHT22;3735;50.136;11.062;2023-04-03T07:53:04;6.20;99.90
7388;DHT22;3735;50.136;11.062;2023-04-03T07:55:31;6.80;99.90
7388;DHT22;3735;50.136;11.062;2023-04-03T07:57:57;6.90;99.90
7388;DHT22;3735;50.136;11.062;2023-04-03T08:00:23;7.40;99.90
7388;DHT22;3735;50.136;11.062;2023-04-03T08:02:50;8.40;99.90
7388;DHT22;3735;50.136;11.062;2023-04-03T08:05:20;8.10;99.90
7388;DHT22;3735;50.136;11.062;2023-04-03T08:07:47;7.00;99.90
7388;DHT22;3735;50.136;11.062;2023-04-03T08:10:14;6.20;99.90
7388;DHT22;3735;50.136;11.062;2023-04-03T08:12:40;5.80;99.90
7388;DHT22;3735;50.136;11.062;2023-04-03T08:15:07;5.60;99.90
7388;DHT22;3735;50.136;11.062;2023-04-03T08:17:34;5.30;99.90
7388;DHT22;3735;50.136;11.062;2023-04-03T08:20:02;5.30;99.90
7388;DHT22;3735;50.136;11.062;2023-04-03T08:22:29;5.90;99.90
7388;DHT22;3735;50.136;11.062;2023-04-03T08:24:55;6.10;99.90
7388;DHT22;3735;50.136;11.062;2023-04-03T08:27:21;5.90;99.90
7388;DHT22;3735;50.136;11.062;2023-04-03T08:29:47;6.50;99.90
7388;DHT22;3735;50.136;11.062;2023-04-03T08:32:13;6.60;99.90
7388;DHT22;3735;50.136;11.062;2023-04-03T08:34:38;6.90;99.90
7388;DHT22;3735;50.136;11.062;2023-04-03T08:37:05;7.30;99.90
7388;DHT22;3735;50.136;11.062;2023-04-03T08:39:31;9.40;99.90
7388;DHT22;3735;50.136;11.062;2023-04-03T08:41:59;12.10;99.90
7388;DHT22;3735;50.136;11.062;2023-04-03T08:47:38;15.20;99.90
7388;DHT22;3735;50.136;11.062;2023-04-03T08:50:18;15.30;99.90
7388;DHT22;3735;50.136;11.062;2023-04-03T08:52:58;14.90;99.90
7388;DHT22;3735;50.136;11.062;2023-04-03T08:55:37;13.80;99.90
7388;DHT22;3735;50.136;11.062;2023-04-03T08:58:26;12.90;99.90
7388;DHT22;3735;50.136;11.062;2023-04-03T09:00:59;11.50;99.90
7388;DHT22;3735;50.136;11.062;2023-04-03T09:03:31;12.60;99.90
7388;DHT22;3735;50.136;11.062;2023-04-03T09:06:18;13.10;99.90
7388;DHT22;3735;50.136;11.062;2023-04-03T09:11:50;10.10;99.90
7388;DHT22;3735;50.136;11.062;2023-04-03T09:14:57;9.00;99.90
7388;DHT22;3735;50.136;11.062;2023-04-03T09:23:28;6.00;99.90
7388;DHT22;3735;50.136;11.062;2023-04-03T09:26:03;5.50;99.90
7388;DHT22;3735;50.136;11.062;2023-04-03T09:28:38;5.90;99.90
7388;DHT22;3735;50.136;11.062;2023-04-03T09:31:19;6.00;99.90
7388;DHT22;3735;50.136;11.062;2023-04-03T09:33:54;8.10;99.90
7388;DHT22;3735;50.136;11.062;2023-04-03T09:37:01;8.70;99.90
7388;DHT22;3735;50.136;11.062;2023-04-03T09:39:33;10.60;99.90
7388;DHT22;3735;50.136;11.062;2023-04-03T09:42:19;12.10;99.90
7388;DHT22;3735;50.136;11.062;2023-04-03T09:45:21;13.40;99.90
7388;DHT22;3735;50.136;11.062;2023-04-03T09:48:08;14.60;99.90
7388;DHT22;3735;50.136;11.062;2023-04-03T09:53:32;15.40;99.90
7388;DHT22;3735;50.136;11.062;2023-04-03T09:59:05;15.10;99.90
7388;DHT22;3735;50.136;11.062;2023-04-03T10:01:36;15.10;99.90
7388;DHT22;3735;50.136;11.062;2023-04-03T10:04:11;14.60;99.90
7388;DHT22;3735;50.136;11.062;2023-04-03T10:09:28;11.90;99.90
7388;DHT22;3735;50.136;11.062;2023-04-03T10:23:21;7.20;99.90
7388;DHT22;3735;50.136;11.062;2023-04-03T10:26:17;7.90;99.90
7388;DHT22;3735;50.136;11.062;2023-04-03T10:38:13;10.40;99.90
7388;DHT22;3735;50.136;11.062;2023-04-03T10:46:23;8.70;99.90
7388;DHT22;3735;50.136;11.062;2023-04-03T10:52:08;8.30;99.90
7388;DHT22;3735;50.136;11.062;2023-04-03T10:55:24;9.90;99.90
7388;DHT22;3735;50.136;11.062;2023-04-03T10:57:51;12.50;99.90
7388;DHT22;3735;50.136;11.062;2023-04-03T11:03:16;15.60;99.90
7388;DHT22;3735;50.136;11.062;2023-04-03T11:06:02;16.70;99.90
7388;DHT22;3735;50.136;11.062;2023-04-03T11:11:16;16.50;99.90
7388;DHT22;3735;50.136;11.062;2023-04-03T11:14:04;15.60;99.90
7388;DHT22;3735;50.136;11.062;2023-04-03T11:16:43;16.20;99.90
7388;DHT22;3735;50.136;11.062;2023-04-03T11:19:15;15.50;99.90
7388;DHT22;3735;50.136;11.062;2023-04-03T11:24:38;16.10;99.90
7388;DHT22;3735;50.136;11.062;2023-04-03T11:27:14;16.40;99.90
7388;DHT22;3735;50.136;11.062;2023-04-03T11:29:47;16.10;99.90
7388;DHT22;3735;50.136;11.062;2023-04-03T11:35:05;14.50;99.90
7388;DHT22;3735;50.136;11.062;2023-04-03T11:37:38;15.30;99.90
7388;DHT22;3735;50.136;11.062;2023-04-03T11:43:37;17.00;99.90
7388;DHT22;3735;50.136;11.062;2023-04-03T11:46:03;16.70;99.90
7388;DHT22;3735;50.136;11.062;2023-04-03T11:53:42;17.80;99.90
7388;DHT22;3735;50.136;11.062;2023-04-03T12:04:12;16.20;99.90
7388;DHT22;3735;50.136;11.062;2023-04-03T12:06:41;15.50;99.90
7388;DHT22;3735;50.136;11.062;2023-04-03T12:11:53;14.30;99.90
7388;DHT22;3735;50.136;11.062;2023-04-03T12:14:23;13.50;99.90
7388;DHT22;3735;50.136;11.062;2023-04-03T12:16:56;14.50;99.90
7388;DHT22;3735;50.136;11.062;2023-04-03T12:19:37;15.90;99.90
7388;DHT22;3735;50.136;11.062;2023-04-03T12:22:12;16.30;99.90
7388;DHT22;3735;50.136;11.062;2023-04-03T12:24:43;16.00;99.90
7388;DHT22;3735;50.136;11.062;2023-04-03T12:27:25;16.30;99.90
7388;DHT22;3735;50.136;11.062;2023-04-03T12:30:21;17.00;99.90
7388;DHT22;3735;50.136;11.062;2023-04-03T12:33:11;17.60;99.90
7388;DHT22;3735;50.136;11.062;2023-04-03T12:36:11;17.90;99.90
7388;DHT22;3735;50.136;11.062;2023-04-03T12:42:08;17.10;99.90
7388;DHT22;3735;50.136;11.062;2023-04-03T12:49:54;16.70;99.90
7388;DHT22;3735;50.136;11.062;2023-04-03T12:55:15;17.10;99.90
7388;DHT22;3735;50.136;11.062;2023-04-03T12:57:42;18.00;99.90
7388;DHT22;3735;50.136;11.062;2023-04-03T13:00:34;16.20;99.90
7388;DHT22;3735;50.136;11.062;2023-04-03T13:03:02;15.90;99.90
7388;DHT22;3735;50.136;11.062;2023-04-03T13:05:31;14.70;99.90
7388;DHT22;3735;50.136;11.062;2023-04-03T13:08:04;14.00;99.90
7388;DHT22;3735;50.136;11.062;2023-04-03T13:10:56;13.00;99.90
7388;DHT22;3735;50.136;11.062;2023-04-03T13:13:27;14.20;99.90
7388;DHT22;3735;50.136;11.062;2023-04-03T13:15:54;13.30;99.90
7388;DHT22;3735;50.136;11.062;2023-04-03T13:23:35;14.60;99.90
7388;DHT22;3735;50.136;11.062;2023-04-03T13:26:04;15.30;99.90
7388;DHT22;3735;50.136;11.062;2023-04-03T13:28:32;15.60;99.90
7388;DHT22;3735;50.136;11.062;2023-04-03T13:33:43;15.80;99.90
7388;DHT22;3735;50.136;11.062;2023-04-03T13:36:29;15.60;99.90
7388;DHT22;3735;50.136;11.062;2023-04-03T13:39:25;15.40;99.90
7388;DHT22;3735;50.136;11.062;2023-04-03T13:42:35;16.00;99.90
7388;DHT22;3735;50.136;11.062;2023-04-03T13:44:47;16.10;99.90
7388;DHT22;3735;50.136;11.062;2023-04-03T13:47:18;14.40;99.90
7388;DHT22;3735;50.136;11.062;2023-04-03T13:50:14;14.40;99.90
7388;DHT22;3735;50.136;11.062;2023-04-03T13:55:36;16.50;99.90
7388;DHT22;3735;50.136;11.062;2023-04-03T13:58:22;16.20;99.90
7388;DHT22;3735;50.136;11.062;2023-04-03T14:01:41;14.40;99.90
7388;DHT22;3735;50.136;11.062;2023-04-03T14:03:52;14.10;99.90
7388;DHT22;3735;50.136;11.062;2023-04-03T14:06:18;13.30;99.90
7388;DHT22;3735;50.136;11.062;2023-04-03T14:08:45;14.00;99.90
7388;DHT22;3735;50.136;11.062;2023-04-03T14:11:24;15.20;99.90
7388;DHT22;3735;50.136;11.062;2023-04-03T14:13:53;16.00;99.90
7388;DHT22;3735;50.136;11.062;2023-04-03T14:16:26;15.40;99.90
7388;DHT22;3735;50.136;11.062;2023-04-03T14:18:55;13.70;99.90
7388;DHT22;3735;50.136;11.062;2023-04-03T14:21:22;13.40;99.90
7388;DHT22;3735;50.136;11.062;2023-04-03T14:23:49;13.30;99.90
7388;DHT22;3735;50.136;11.062;2023-04-03T14:26:21;13.70;99.90
7388;DHT22;3735;50.136;11.062;2023-04-03T14:28:54;13.70;99.90
7388;DHT22;3735;50.136;11.062;2023-04-03T14:31:21;12.20;99.90
7388;DHT22;3735;50.136;11.062;2023-04-03T14:33:47;11.30;99.90
7388;DHT22;3735;50.136;11.062;2023-04-03T14:36:14;11.40;99.90
7388;DHT22;3735;50.136;11.062;2023-04-03T14:38:42;12.60;99.90
7388;DHT22;3735;50.136;11.062;2023-04-03T14:41:12;13.50;99.90
7388;DHT22;3735;50.136;11.062;2023-04-03T14:43:40;14.10;99.90
7388;DHT22;3735;50.136;11.062;2023-04-03T14:46:22;14.40;99.90
7388;DHT22;3735;50.136;11.062;2023-04-03T14:48:52;13.90;99.90
7388;DHT22;3735;50.136;11.062;2023-04-03T14:51:18;13.00;99.90
7388;DHT22;3735;50.136;11.062;2023-04-03T14:53:44;12.80;99.90
7388;DHT22;3735;50.136;11.062;2023-04-03T14:56:22;11.40;99.90
7388;DHT22;3735;50.136;11.062;2023-04-03T14:58:57;10.00;99.90
7388;DHT22;3735;50.136;11.062;2023-04-03T15:01:25;9.20;99.90
7388;DHT22;3735;50.136;11.062;2023-04-03T15:03:52;10.50;99.90
7388;DHT22;3735;50.136;11.062;2023-04-03T15:06:18;12.40;99.90
7388;DHT22;3735;50.136;11.062;2023-04-03T15:08:45;12.80;99.90
7388;DHT22;3735;50.136;11.062;2023-04-03T15:11:13;11.20;99.90
7388;DHT22;3735;50.136;11.062;2023-04-03T15:13:40;9.90;99.90
7388;DHT22;3735;50.136;11.062;2023-04-03T15:16:14;9.20;99.90
7388;DHT22;3735;50.136;11.062;2023-04-03T15:18:42;10.10;99.90
7388;DHT22;3735;50.136;11.062;2023-04-03T15:21:10;10.30;99.90
7388;DHT22;3735;50.136;11.062;2023-04-03T15:23:36;11.30;99.90
7388;DHT22;3735;50.136;11.062;2023-04-03T15:26:02;11.60;99.90
7388;DHT22;3735;50.136;11.062;2023-04-03T15:28:40;12.10;99.90
7388;DHT22;3735;50.136;11.062;2023-04-03T15:31:07;12.10;99.90
7388;DHT22;3735;50.136;11.062;2023-04-03T15:33:34;11.90;99.90
7388;DHT22;3735;50.136;11.062;2023-04-03T15:36:02;11.40;99.90
7388;DHT22;3735;50.136;11.062;2023-04-03T15:38:28;10.10;99.90
7388;DHT22;3735;50.136;11.062;2023-04-03T15:40:55;9.00;99.90
7388;DHT22;3735;50.136;11.062;2023-04-03T15:43:21;8.20;99.90
7388;DHT22;3735;50.136;11.062;2023-04-03T15:45:50;7.50;99.90
7388;DHT22;3735;50.136;11.062;2023-04-03T15:48:17;7.00;99.90
7388;DHT22;3735;50.136;11.062;2023-04-03T15:50:43;7.20;99.90
7388;DHT22;3735;50.136;11.062;2023-04-03T15:53:10;7.10;99.90
7388;DHT22;3735;50.136;11.062;2023-04-03T15:55:37;6.80;99.90
7388;DHT22;3735;50.136;11.062;2023-04-03T15:58:04;7.40;99.90
7388;DHT22;3735;50.136;11.062;2023-04-03T16:00:30;7.10;99.90
7388;DHT22;3735;50.136;11.062;2023-04-03T16:03:05;6.60;99.90
7388;DHT22;3735;50.136;11.062;2023-04-03T16:05:35;6.00;99.90
7388;DHT22;3735;50.136;11.062;2023-04-03T16:08:04;5.70;99.90
7388;DHT22;3735;50.136;11.062;2023-04-03T16:10:31;5.40;99.90
7388;DHT22;3735;50.136;11.062;2023-04-03T16:12:57;5.40;99.90
7388;DHT22;3735;50.136;11.062;2023-04-03T16:15:24;6.30;99.90
7388;DHT22;3735;50.136;11.062;2023-04-03T16:17:52;7.70;99.90
7388;DHT22;3735;50.136;11.062;2023-04-03T16:20:19;9.00;99.90
7388;DHT22;3735;50.136;11.062;2023-04-03T16:22:47;9.10;99.90
7388;DHT22;3735;50.136;11.062;2023-04-03T16:25:14;8.10;99.90
7388;DHT22;3735;50.136;11.062;2023-04-03T16:27:40;7.00;99.90
7388;DHT22;3735;50.136;11.062;2023-04-03T16:30:07;6.30;99.90
7388;DHT22;3735;50.136;11.062;2023-04-03T16:32:34;5.60;99.90
7388;DHT22;3735;50.136;11.062;2023-04-03T16:35:01;5.10;99.90
7388;DHT22;3735;50.136;11.062;2023-04-03T16:37:27;4.80;99.90
7388;DHT22;3735;50.136;11.062;2023-04-03T16:39:52;4.60;99.90
7388;DHT22;3735;50.136;11.062;2023-04-03T16:42:18;4.50;99.90
7388;DHT22;3735;50.136;11.062;2023-04-03T16:44:44;5.00;99.90
7388;DHT22;3735;50.136;11.062;2023-04-03T16:47:10;5.10;99.90
7388;DHT22;3735;50.136;11.062;2023-04-03T16:49:36;5.20;99.90
7388;DHT22;3735;50.136;11.062;2023-04-03T16:52:03;5.30;99.90
7388;DHT22;3735;50.136;11.062;2023-04-03T16:54:31;5.30;99.90
7388;DHT22;3735;50.136;11.062;2023-04-03T16:56:57;5.10;99.90
7388;DHT22;3735;50.136;11.062;2023-04-03T16:59:23;4.80;99.90
7388;DHT22;3735;50.136;11.062;2023-04-03T17:01:49;4.40;99.90
7388;DHT22;3735;50.136;11.062;2023-04-03T17:04:15;4.20;99.90
7388;DHT22;3735;50.136;11.062;2023-04-03T17:06:41;4.10;99.90
7388;DHT22;3735;50.136;11.062;2023-04-03T17:09:08;4.00;99.90
7388;DHT22;3735;50.136;11.062;2023-04-03T17:11:35;4.00;99.90
7388;DHT22;3735;50.136;11.062;2023-04-03T17:14:01;4.10;99.90
7388;DHT22;3735;50.136;11.062;2023-04-03T17:16:28;4.10;99.90
7388;DHT22;3735;50.136;11.062;2023-04-03T17:18:54;4.20;99.90
7388;DHT22;3735;50.136;11.062;2023-04-03T17:21:21;4.10;99.90
7388;DHT22;3735;50.136;11.062;2023-04-03T17:23:51;4.00;99.90
7388;DHT22;3735;50.136;11.062;2023-04-03T17:26:23;3.90;99.90
7388;DHT22;3735;50.136;11.062;2023-04-03T17:28:50;3.80;99.90
7388;DHT22;3735;50.136;11.062;2023-04-03T17:31:16;3.70;99.90
7388;DHT22;3735;50.136;11.062;2023-04-03T17:33:42;3.50;99.90
7388;DHT22;3735;50.136;11.062;2023-04-03T17:36:08;3.40;99.90
7388;DHT22;3735;50.136;11.062;2023-04-03T17:38:34;3.30;99.90
7388;DHT22;3735;50.136;11.062;2023-04-03T17:41:02;3.30;99.90
7388;DHT22;3735;50.136;11.062;2023-04-03T17:43:31;3.30;99.90
7388;DHT22;3735;50.136;11.062;2023-04-03T17:46:03;3.30;99.90
7388;DHT22;3735;50.136;11.062;2023-04-03T17:48:33;3.40;99.90
7388;DHT22;3735;50.136;11.062;2023-04-03T17:51:21;3.40;99.90
7388;DHT22;3735;50.136;11.062;2023-04-03T17:53:48;3.50;99.90
7388;DHT22;3735;50.136;11.062;2023-04-03T17:56:17;3.40;99.90
7388;DHT22;3735;50.136;11.062;2023-04-03T17:58:45;3.50;99.90
7388;DHT22;3735;50.136;11.062;2023-04-03T18:01:14;3.40;99.90
7388;DHT22;3735;50.136;11.062;2023-04-03T18:03:46;3.40;99.90
7388;DHT22;3735;50.136;11.062;2023-04-03T18:06:15;3.30;99.90
7388;DHT22;3735;50.136;11.062;2023-04-03T18:08:49;3.30;99.90